createdAt,value
2016-07-19T00:00:45.138Z,21.4
2016-07-19T00:01:45.151Z,21.35
2016-07-19T00:02:44.426Z,21.3
2016-07-19T00:03:45.154Z,21.15
2016-07-19T00:04:44.434Z,21.13
2016-07-19T00:05:45.154Z,21.08
2016-07-19T00:06:45.158Z,20.95
2016-07-19T00:07:45.158Z,20.88
2016-07-19T00:08:45.158Z,20.88
2016-07-19T00:09:45.162Z,20.82
2016-07-19T00:10:45.162Z,20.74
2016-07-19T00:11:45.166Z,20.74
2016-07-19T00:12:45.166Z,20.66
2016-07-19T00:13:45.166Z,20.55
2016-07-19T00:14:45.170Z,20.58
2016-07-19T00:15:45.171Z,20.5
2016-07-19T00:16:45.174Z,20.52
2016-07-19T00:17:45.173Z,20.44
2016-07-19T00:18:45.175Z,20.48
2016-07-19T00:19:45.178Z,20.49
2016-07-19T00:20:45.178Z,20.42
2016-07-19T00:21:45.181Z,20.27
2016-07-19T00:22:45.182Z,20.17
2016-07-19T00:23:45.182Z,20.22
2016-07-19T00:24:45.186Z,20.17
2016-07-19T00:25:45.186Z,20.08
2016-07-19T00:26:45.190Z,19.99
2016-07-19T00:27:45.190Z,19.92
2016-07-19T00:28:45.190Z,19.81
2016-07-19T00:29:45.194Z,19.82
2016-07-19T00:30:45.194Z,19.81
2016-07-19T00:31:45.199Z,19.77
2016-07-19T00:32:45.206Z,19.72
2016-07-19T00:33:45.199Z,19.75
2016-07-19T00:34:45.199Z,19.62
2016-07-19T00:35:45.200Z,19.62
2016-07-19T00:36:45.204Z,19.56
2016-07-19T00:37:45.209Z,19.55
2016-07-19T00:38:45.208Z,19.47
2016-07-19T00:39:45.213Z,19.49
2016-07-19T00:40:45.208Z,19.47
2016-07-19T00:41:45.214Z,19.45
2016-07-19T00:42:45.213Z,19.39
2016-07-19T00:43:45.218Z,19.39
2016-07-19T00:44:45.222Z,19.37
2016-07-19T00:45:45.222Z,19.38
2016-07-19T00:46:45.222Z,19.37
2016-07-19T00:47:45.230Z,19.37
2016-07-19T00:48:45.227Z,19.26
2016-07-19T00:49:45.226Z,19.23
2016-07-19T00:50:45.230Z,19.16
2016-07-19T00:51:45.231Z,19.16
2016-07-19T00:52:45.230Z,19.2
2016-07-19T00:53:45.239Z,19.12
2016-07-19T00:54:45.234Z,19.04
2016-07-19T00:55:45.239Z,19
2016-07-19T00:56:45.239Z,19.09
2016-07-19T00:57:45.239Z,19
2016-07-19T00:58:45.244Z,19.04
2016-07-19T00:59:45.243Z,19.01
2016-07-19T01:00:45.244Z,19.05
2016-07-19T01:01:45.251Z,18.97
2016-07-19T01:02:45.247Z,18.91
2016-07-19T01:03:45.247Z,18.88
2016-07-19T01:04:45.251Z,18.89
2016-07-19T01:05:44.528Z,18.82
2016-07-19T01:06:45.255Z,18.86
2016-07-19T01:07:45.256Z,18.86
2016-07-19T01:08:45.255Z,18.81
2016-07-19T01:09:45.256Z,18.79
2016-07-19T01:10:45.255Z,18.86
2016-07-19T01:11:45.260Z,18.82
2016-07-19T01:12:45.263Z,18.79
2016-07-19T01:13:45.263Z,18.81
2016-07-19T01:14:45.263Z,18.74
2016-07-19T01:15:45.280Z,18.83
2016-07-19T01:16:45.268Z,18.67
2016-07-19T01:17:45.263Z,18.74
2016-07-19T01:18:45.272Z,18.76
2016-07-19T01:19:45.267Z,18.7
2016-07-19T01:20:45.272Z,18.71
2016-07-19T01:21:45.275Z,18.66
2016-07-19T01:22:45.279Z,18.66
2016-07-19T01:23:45.276Z,18.57
2016-07-19T01:24:45.280Z,18.55
2016-07-19T01:25:45.279Z,18.57
2016-07-19T01:26:45.284Z,18.51
2016-07-19T01:27:45.280Z,18.49
2016-07-19T01:28:45.284Z,18.49
2016-07-19T01:29:45.284Z,18.52
2016-07-19T01:30:45.288Z,18.43
2016-07-19T01:31:45.289Z,18.43
2016-07-19T01:32:45.288Z,18.37
2016-07-19T01:33:45.308Z,18.36
2016-07-19T01:34:45.292Z,18.33
2016-07-19T01:35:45.288Z,18.36
2016-07-19T01:36:45.295Z,18.27
2016-07-19T01:37:45.296Z,18.3
2016-07-19T01:38:45.296Z,18.3
2016-07-19T01:39:45.301Z,18.3
2016-07-19T01:40:45.304Z,18.26
2016-07-19T01:41:45.301Z,18.21
2016-07-19T01:42:45.401Z,18.26
2016-07-19T01:43:45.305Z,18.23
2016-07-19T01:44:45.304Z,18.23
2016-07-19T01:45:45.300Z,18.15
2016-07-19T01:46:45.304Z,18.23
2016-07-19T01:47:45.308Z,18.27
2016-07-19T01:48:45.313Z,18.27
2016-07-19T01:49:44.588Z,18.23
2016-07-19T01:50:45.317Z,18.24
2016-07-19T01:51:45.320Z,18.23
2016-07-19T01:52:45.329Z,18.21
2016-07-19T01:53:45.316Z,18.24
2016-07-19T01:54:45.317Z,18.16
2016-07-19T01:55:45.321Z,18.26
2016-07-19T01:56:45.320Z,18.16
2016-07-19T01:57:45.325Z,18.18
2016-07-19T01:58:45.324Z,18.08
2016-07-19T01:59:45.325Z,18.11
2016-07-19T02:00:45.325Z,18.09
2016-07-19T02:01:44.610Z,18.08
2016-07-19T02:02:45.333Z,18.05
2016-07-19T02:03:45.329Z,18.02
2016-07-19T02:04:45.333Z,18.11
2016-07-19T02:05:45.333Z,18.02
2016-07-19T02:06:45.333Z,18.03
2016-07-19T02:07:45.337Z,17.98
2016-07-19T02:08:44.618Z,17.95
2016-07-19T02:09:45.336Z,18
2016-07-19T02:10:45.337Z,17.95
2016-07-19T02:11:45.342Z,17.98
2016-07-19T02:12:45.341Z,18.03
2016-07-19T02:13:45.346Z,17.94
2016-07-19T02:14:45.341Z,18.02
2016-07-19T02:15:45.342Z,17.94
2016-07-19T02:16:45.345Z,17.95
2016-07-19T02:17:45.349Z,17.97
2016-07-19T02:18:45.349Z,17.95
2016-07-19T02:19:45.350Z,17.97
2016-07-19T02:20:45.354Z,17.93
2016-07-19T02:21:45.361Z,17.87
2016-07-19T02:22:45.354Z,17.82
2016-07-19T02:23:45.349Z,17.76
2016-07-19T02:24:45.357Z,17.88
2016-07-19T02:25:45.361Z,17.82
2016-07-19T02:26:45.357Z,17.79
2016-07-19T02:27:45.353Z,17.84
2016-07-19T02:28:45.362Z,17.86
2016-07-19T02:29:45.363Z,17.8
2016-07-19T02:30:45.365Z,17.84
2016-07-19T02:31:45.366Z,17.72
2016-07-19T02:32:45.365Z,17.71
2016-07-19T02:33:45.365Z,17.68
2016-07-19T02:34:45.370Z,17.68
2016-07-19T02:35:45.370Z,17.57
2016-07-19T02:36:45.370Z,17.65
2016-07-19T02:37:45.374Z,17.65
2016-07-19T02:38:45.374Z,17.65
2016-07-19T02:39:45.374Z,17.63
2016-07-19T02:40:45.375Z,17.6
2016-07-19T02:41:45.383Z,17.6
2016-07-19T02:42:45.378Z,17.65
2016-07-19T02:43:44.654Z,17.66
2016-07-19T02:44:45.382Z,17.5
2016-07-19T02:45:45.382Z,17.52
2016-07-19T02:46:45.382Z,17.44
2016-07-19T02:47:45.386Z,17.52
2016-07-19T02:48:45.382Z,17.41
2016-07-19T02:49:45.386Z,17.47
2016-07-19T02:50:45.390Z,17.6
2016-07-19T02:51:45.387Z,17.5
2016-07-19T02:52:45.386Z,17.5
2016-07-19T02:53:45.390Z,17.41
2016-07-19T02:54:45.386Z,17.44
2016-07-19T02:55:45.402Z,17.5
2016-07-19T02:56:45.394Z,17.49
2016-07-19T02:57:45.396Z,17.47
2016-07-19T02:58:45.395Z,17.44
2016-07-19T02:59:45.398Z,17.42
2016-07-19T03:00:45.399Z,17.38
2016-07-19T03:01:45.398Z,17.39
2016-07-19T03:02:45.399Z,17.31
2016-07-19T03:03:45.403Z,17.37
2016-07-19T03:04:45.403Z,17.37
2016-07-19T03:05:45.403Z,17.35
2016-07-19T03:06:45.407Z,17.37
2016-07-19T03:07:45.407Z,17.32
2016-07-19T03:08:44.687Z,17.34
2016-07-19T03:09:45.408Z,17.37
2016-07-19T03:10:45.407Z,17.3
2016-07-19T03:11:45.411Z,17.27
2016-07-19T03:12:45.412Z,17.28
2016-07-19T03:13:45.411Z,17.22
2016-07-19T03:14:45.415Z,17.31
2016-07-19T03:15:45.415Z,17.31
2016-07-19T03:16:44.695Z,17.19
2016-07-19T03:17:45.410Z,17.24
2016-07-19T03:18:45.420Z,17.2
2016-07-19T03:19:45.415Z,17.27
2016-07-19T03:20:45.419Z,17.27
2016-07-19T03:21:45.419Z,17.28
2016-07-19T03:22:45.423Z,17.13
2016-07-19T03:23:45.427Z,17.24
2016-07-19T03:24:45.423Z,17.16
2016-07-19T03:25:45.419Z,17.17
2016-07-19T03:26:45.434Z,17.16
2016-07-19T03:27:45.440Z,17.17
2016-07-19T03:28:44.708Z,17.14
2016-07-19T03:29:45.428Z,17.14
2016-07-19T03:30:45.432Z,17.12
2016-07-19T03:31:45.432Z,17.14
2016-07-19T03:32:45.432Z,17.12
2016-07-19T03:33:44.727Z,17.07
2016-07-19T03:34:45.432Z,17.13
2016-07-19T03:35:45.436Z,17.1
2016-07-19T03:36:44.716Z,17.14
2016-07-19T03:37:45.436Z,17.1
2016-07-19T03:38:45.440Z,17.22
2016-07-19T03:39:45.439Z,17.1
2016-07-19T03:40:45.440Z,17.14
2016-07-19T03:41:45.440Z,17.14
2016-07-19T03:42:45.491Z,17.14
2016-07-19T03:43:45.444Z,17.1
2016-07-19T03:44:45.440Z,17.12
2016-07-19T03:45:45.444Z,17.12
2016-07-19T03:46:45.448Z,17.12
2016-07-19T03:47:45.448Z,17.07
2016-07-19T03:48:45.444Z,17.14
2016-07-19T03:49:45.452Z,17.13
2016-07-19T03:50:45.458Z,17.17
2016-07-19T03:51:45.452Z,17.14
2016-07-19T03:52:45.448Z,17.22
2016-07-19T03:53:45.456Z,17.28
2016-07-19T03:54:45.456Z,17.23
2016-07-19T03:55:45.457Z,17.3
2016-07-19T03:56:45.456Z,17.24
2016-07-19T03:57:45.461Z,17.2
2016-07-19T03:58:45.464Z,17.17
2016-07-19T03:59:45.462Z,17.31
2016-07-19T04:00:45.456Z,17.23
2016-07-19T04:01:45.465Z,17.22
2016-07-19T04:02:45.469Z,17.27
2016-07-19T04:03:45.461Z,17.32
2016-07-19T04:04:45.465Z,17.34
2016-07-19T04:05:45.464Z,17.41
2016-07-19T04:06:45.465Z,17.56
2016-07-19T04:07:45.477Z,17.75
2016-07-19T04:08:45.464Z,17.9
2016-07-19T04:09:45.476Z,17.98
2016-07-19T04:10:45.473Z,18.13
2016-07-19T04:11:45.473Z,18.28
2016-07-19T04:12:45.473Z,18.52
2016-07-19T04:13:45.473Z,18.76
2016-07-19T04:14:45.477Z,18.89
2016-07-19T04:15:45.477Z,19.12
2016-07-19T04:16:45.477Z,19.35
2016-07-19T04:17:45.477Z,19.66
2016-07-19T04:18:45.477Z,19.93
2016-07-19T04:19:45.481Z,20.17
2016-07-19T04:20:45.481Z,20.56
2016-07-19T04:21:45.481Z,20.89
2016-07-19T04:22:45.481Z,21.28
2016-07-19T04:23:45.492Z,21.62
2016-07-19T04:24:45.481Z,21.89
2016-07-19T04:25:45.485Z,22.03
2016-07-19T04:26:45.481Z,22.41
2016-07-19T04:27:45.489Z,22.71
2016-07-19T04:28:45.490Z,23.07
2016-07-19T04:29:45.490Z,23.44
2016-07-19T04:30:45.490Z,23.62
2016-07-19T04:31:45.485Z,23.89
2016-07-19T04:32:45.486Z,24.19
2016-07-19T04:33:45.489Z,24.48
2016-07-19T04:34:45.493Z,24.92
2016-07-19T04:35:45.494Z,25.22
2016-07-19T04:36:45.497Z,25.52
2016-07-19T04:37:45.492Z,25.88
2016-07-19T04:38:45.497Z,26.23
2016-07-19T04:39:45.493Z,26.52
2016-07-19T04:40:45.497Z,26.76
2016-07-19T04:41:45.498Z,26.98
2016-07-19T04:42:45.509Z,27.28
2016-07-19T04:43:45.498Z,27.57
2016-07-19T04:44:45.501Z,27.81
2016-07-19T04:45:45.506Z,28.04
2016-07-19T04:46:45.502Z,28.28
2016-07-19T04:47:45.506Z,28.6
2016-07-19T04:48:45.506Z,28.84
2016-07-19T04:49:45.510Z,29.22
2016-07-19T04:50:45.510Z,29.39
2016-07-19T04:51:45.510Z,29.65
2016-07-19T04:52:45.514Z,29.95
2016-07-19T04:53:45.514Z,30.26
2016-07-19T04:54:45.514Z,30.54
2016-07-19T04:55:45.514Z,30.88
2016-07-19T04:56:45.518Z,31
2016-07-19T04:57:45.514Z,31.08
2016-07-19T04:58:44.802Z,31.26
2016-07-19T04:59:45.517Z,31.28
2016-07-19T05:00:45.922Z,31.14
2016-07-19T05:01:45.522Z,31.1
2016-07-19T05:02:45.518Z,31
2016-07-19T05:03:45.530Z,31.07
2016-07-19T05:04:45.521Z,31.17
2016-07-19T05:05:45.527Z,31.23
2016-07-19T05:06:45.526Z,31.41
2016-07-19T05:07:45.530Z,31.59
2016-07-19T05:08:45.530Z,31.78
2016-07-19T05:09:45.531Z,32.07
2016-07-19T05:10:45.546Z,32.37
2016-07-19T05:11:45.530Z,32.63
2016-07-19T05:12:45.537Z,32.94
2016-07-19T05:13:45.531Z,33.23
2016-07-19T05:14:45.538Z,33.54
2016-07-19T05:15:45.539Z,33.92
2016-07-19T05:16:45.535Z,34.32
2016-07-19T05:17:45.547Z,34.62
2016-07-19T05:18:45.543Z,34.85
2016-07-19T05:19:45.543Z,35.18
2016-07-19T05:20:45.547Z,35.26
2016-07-19T05:21:45.546Z,35.57
2016-07-19T05:22:45.551Z,36
2016-07-19T05:23:45.550Z,36.2
2016-07-19T05:24:45.551Z,36.54
2016-07-19T05:25:44.830Z,36.72
2016-07-19T05:26:45.555Z,36.73
2016-07-19T05:27:45.546Z,36.96
2016-07-19T05:28:45.559Z,37.11
2016-07-19T05:29:45.555Z,37.19
2016-07-19T05:30:45.559Z,37.4
2016-07-19T05:31:45.559Z,37.54
2016-07-19T05:32:44.847Z,37.76
2016-07-19T05:33:45.559Z,38.09
2016-07-19T05:34:45.567Z,38.32
2016-07-19T05:35:45.567Z,38.53
2016-07-19T05:36:45.580Z,38.82
2016-07-19T05:37:45.567Z,39.08
2016-07-19T05:38:45.575Z,39.32
2016-07-19T05:39:45.575Z,39.63
2016-07-19T05:40:45.576Z,39.88
2016-07-19T05:41:45.576Z,39.91
2016-07-19T05:42:45.775Z,39.33
2016-07-19T05:43:45.580Z,38.98
2016-07-19T05:44:45.574Z,38.53
2016-07-19T05:45:45.583Z,37.97
2016-07-19T05:46:45.583Z,37.44
2016-07-19T05:47:45.587Z,37.01
2016-07-19T05:48:45.579Z,36.2
2016-07-19T05:49:45.583Z,35.38
2016-07-19T05:50:45.587Z,35.13
2016-07-19T05:51:45.595Z,35.1
2016-07-19T05:52:45.608Z,35.15
2016-07-19T05:53:45.599Z,35.26
2016-07-19T05:54:45.596Z,34.96
2016-07-19T05:55:45.607Z,34.59
2016-07-19T05:56:45.600Z,34.46
2016-07-19T05:57:45.604Z,34.43
2016-07-19T05:58:45.603Z,34.1
2016-07-19T05:59:45.608Z,33.95
2016-07-19T06:00:45.608Z,33.63
2016-07-19T06:01:45.613Z,33.7
2016-07-19T06:02:45.608Z,33.75
2016-07-19T06:03:45.612Z,33.88
2016-07-19T06:04:45.617Z,33.72
2016-07-19T06:05:45.616Z,33.55
2016-07-19T06:06:45.621Z,33.39
2016-07-19T06:07:45.616Z,33.39
2016-07-19T06:08:45.625Z,33.67
2016-07-19T06:09:45.605Z,33.7
2016-07-19T06:10:45.624Z,33.29
2016-07-19T06:11:45.635Z,33.39
2016-07-19T06:12:45.624Z,33.54
2016-07-19T06:13:45.636Z,33.88
2016-07-19T06:14:44.912Z,34.18
2016-07-19T06:15:45.636Z,34.29
2016-07-19T06:16:45.640Z,34.22
2016-07-19T06:17:45.641Z,34.18
2016-07-19T06:18:45.640Z,34.1
2016-07-19T06:19:45.645Z,34.21
2016-07-19T06:20:45.644Z,34.5
2016-07-19T06:21:45.649Z,34.82
2016-07-19T06:22:45.644Z,34.71
2016-07-19T06:23:45.653Z,34.6
2016-07-19T06:24:45.649Z,34.71
2016-07-19T06:25:45.653Z,34.79
2016-07-19T06:26:45.657Z,34.93
2016-07-19T06:27:45.652Z,35.15
2016-07-19T06:28:45.676Z,35.44
2016-07-19T06:29:45.660Z,35.75
2016-07-19T06:30:45.677Z,35.94
2016-07-19T06:31:45.657Z,35.78
2016-07-19T06:32:45.669Z,35.59
2016-07-19T06:33:45.716Z,35.52
2016-07-19T06:34:45.668Z,35.47
2016-07-19T06:35:45.680Z,35.34
2016-07-19T06:36:45.677Z,35.34
2016-07-19T06:37:45.677Z,35.13
2016-07-19T06:38:45.681Z,35.12
2016-07-19T06:39:45.676Z,35.18
2016-07-19T06:40:45.685Z,35.35
2016-07-19T06:41:45.685Z,35.57
2016-07-19T06:42:45.689Z,35.72
2016-07-19T06:43:45.688Z,36.11
2016-07-19T06:44:45.692Z,36.31
2016-07-19T06:45:45.685Z,36.72
2016-07-19T06:46:48.715Z,37.07
2016-07-19T06:47:45.666Z,37.23
2016-07-19T06:48:45.682Z,37.21
2016-07-19T06:49:44.963Z,37.22
2016-07-19T06:51:04.878Z,37.23
2016-07-19T06:51:45.675Z,37.21
2016-07-19T06:52:45.678Z,37.11
2016-07-19T06:53:45.683Z,37.01
2016-07-19T06:54:45.682Z,36.92
2016-07-19T06:55:45.683Z,36.78
2016-07-19T06:56:45.687Z,36.59
2016-07-19T06:57:45.691Z,36.7
2016-07-19T06:58:45.691Z,37
2016-07-19T06:59:45.713Z,37.47
2016-07-19T07:00:48.732Z,37.64
2016-07-19T07:01:45.700Z,37.54
2016-07-19T07:02:45.706Z,37.76
2016-07-19T07:03:45.714Z,38.01
2016-07-19T07:04:45.734Z,38.2
2016-07-19T07:05:45.726Z,38.12
2016-07-19T07:06:45.738Z,38.1
2016-07-19T07:07:45.746Z,37.95
2016-07-19T07:08:45.742Z,37.97
2016-07-19T07:09:45.749Z,37.94
2016-07-19T07:10:45.749Z,37.91
2016-07-19T07:11:45.759Z,38
2016-07-19T07:12:45.759Z,38.05
2016-07-19T07:13:45.758Z,38.13
2016-07-19T07:14:45.759Z,38.22
2016-07-19T07:15:45.758Z,38.14
2016-07-19T07:16:45.762Z,38.17
2016-07-19T07:17:45.762Z,38.44
2016-07-19T07:18:45.767Z,38.62
2016-07-19T07:19:45.770Z,38.72
2016-07-19T07:20:45.770Z,39.01
2016-07-19T07:21:45.771Z,39.32
2016-07-19T07:22:45.775Z,39.48
2016-07-19T07:23:45.775Z,39.68
2016-07-19T07:24:45.779Z,39.76
2016-07-19T07:25:45.779Z,39.57
2016-07-19T07:26:45.787Z,39.23
2016-07-19T07:27:45.787Z,38.79
2016-07-19T07:28:45.786Z,38
2016-07-19T07:29:45.791Z,37.54
2016-07-19T07:30:45.791Z,37.41
2016-07-19T07:31:45.798Z,37.43
2016-07-19T07:32:45.798Z,37.38
2016-07-19T07:33:45.806Z,37.14
2016-07-19T07:34:45.803Z,36.85
2016-07-19T07:35:45.803Z,36.97
2016-07-19T07:36:45.083Z,37.09
2016-07-19T07:37:45.811Z,37.33
2016-07-19T07:38:45.806Z,37.45
2016-07-19T07:39:45.811Z,37.57
2016-07-19T07:40:45.815Z,37.43
2016-07-19T07:41:45.815Z,37.33
2016-07-19T07:42:45.819Z,37.43
2016-07-19T07:43:45.828Z,37.66
2016-07-19T07:44:45.823Z,38.05
2016-07-19T07:45:45.827Z,38.34
2016-07-19T07:46:45.827Z,38.65
2016-07-19T07:47:45.830Z,38.95
2016-07-19T07:48:45.835Z,39.07
2016-07-19T07:49:45.127Z,39.01
2016-07-19T07:50:45.839Z,38.84
2016-07-19T07:51:45.840Z,38.69
2016-07-19T07:52:45.843Z,38.81
2016-07-19T07:53:45.124Z,38.87
2016-07-19T07:54:45.843Z,38.73
2016-07-19T07:55:45.851Z,38.51
2016-07-19T07:56:45.851Z,38.75
2016-07-19T07:57:45.851Z,38.72
2016-07-19T07:58:45.860Z,38.53
2016-07-19T07:59:45.859Z,38.56
2016-07-19T08:00:45.861Z,38.57
2016-07-19T08:01:45.863Z,38.48
2016-07-19T08:02:45.868Z,38.48
2016-07-19T08:03:45.868Z,38.44
2016-07-19T08:04:45.872Z,38.09
2016-07-19T08:05:45.872Z,37.5
2016-07-19T08:06:45.876Z,37.22
2016-07-19T08:07:45.876Z,37.03
2016-07-19T08:08:45.880Z,36.96
2016-07-19T08:09:45.884Z,36.94
2016-07-19T08:10:45.884Z,37.03
2016-07-19T08:11:45.888Z,37.21
2016-07-19T08:12:45.889Z,37.29
2016-07-19T08:13:45.893Z,37.19
2016-07-19T08:14:45.892Z,37.31
2016-07-19T08:15:45.896Z,37.41
2016-07-19T08:16:45.901Z,37.45
2016-07-19T08:17:45.896Z,37.22
2016-07-19T08:18:45.908Z,37.26
2016-07-19T08:19:45.180Z,37.44
2016-07-19T08:20:45.908Z,37.78
2016-07-19T08:21:45.912Z,37.92
2016-07-19T08:22:45.913Z,37.95
2016-07-19T08:23:45.917Z,38.32
2016-07-19T08:24:45.917Z,38.42
2016-07-19T08:25:45.925Z,38.62
2016-07-19T08:26:45.916Z,38.92
2016-07-19T08:27:45.925Z,39.39
2016-07-19T08:28:45.208Z,39.45
2016-07-19T08:29:45.924Z,39.2
2016-07-19T08:30:45.937Z,39.12
2016-07-19T08:31:45.937Z,38.66
2016-07-19T08:32:45.937Z,38.17
2016-07-19T08:33:45.941Z,37.86
2016-07-19T08:34:45.948Z,37.64
2016-07-19T08:35:45.945Z,37.6
2016-07-19T08:36:45.945Z,37.64
2016-07-19T08:37:45.949Z,37.56
2016-07-19T08:38:45.953Z,37.56
2016-07-19T08:39:45.953Z,37.4
2016-07-19T08:40:45.949Z,37.29
2016-07-19T08:41:45.245Z,37.48
2016-07-19T08:42:46.013Z,37.22
2016-07-19T08:43:45.966Z,37.04
2016-07-19T08:44:45.965Z,37.04
2016-07-19T08:45:45.969Z,36.97
2016-07-19T08:46:45.986Z,36.7
2016-07-19T08:47:45.973Z,36.72
2016-07-19T08:48:45.977Z,36.69
2016-07-19T08:49:45.973Z,36.72
2016-07-19T08:50:45.981Z,36.55
2016-07-19T08:51:45.982Z,36.25
2016-07-19T08:52:45.985Z,36.17
2016-07-19T08:53:45.989Z,35.91
2016-07-19T08:54:45.990Z,35.71
2016-07-19T08:55:45.995Z,35.44
2016-07-19T08:56:45.999Z,35.16
2016-07-19T08:57:45.998Z,35.15
2016-07-19T08:58:46.002Z,35.26
2016-07-19T08:59:46.002Z,35.59
2016-07-19T09:00:46.006Z,35.86
2016-07-19T09:01:46.010Z,36.28
2016-07-19T09:02:46.010Z,36.63
2016-07-19T09:03:46.014Z,36.89
2016-07-19T09:04:58.734Z,37.11
2016-07-19T09:05:46.018Z,37.21
2016-07-19T09:06:46.022Z,37.26
2016-07-19T09:07:46.022Z,37.21
2016-07-19T09:08:46.027Z,37.09
2016-07-19T09:09:46.026Z,37.15
2016-07-19T09:10:46.031Z,37.1
2016-07-19T09:11:46.034Z,37.07
2016-07-19T09:12:46.034Z,37.06
2016-07-19T09:13:46.038Z,37.21
2016-07-19T09:14:46.038Z,37.09
2016-07-19T09:15:46.042Z,37.22
2016-07-19T09:16:46.046Z,37.31
2016-07-19T09:17:46.046Z,37.23
2016-07-19T09:18:46.051Z,37.23
2016-07-19T09:19:46.053Z,37.31
2016-07-19T09:20:46.055Z,37.1
2016-07-19T09:21:46.059Z,37.04
2016-07-19T09:22:46.059Z,37.15
2016-07-19T09:23:46.063Z,37.1
2016-07-19T09:24:46.066Z,36.92
2016-07-19T09:25:46.068Z,36.73
2016-07-19T09:26:46.070Z,36.63
2016-07-19T09:27:46.070Z,36.57
2016-07-19T09:28:46.076Z,36.69
2016-07-19T09:29:46.080Z,36.65
2016-07-19T09:30:46.086Z,36.32
2016-07-19T09:31:45.363Z,36.29
2016-07-19T09:32:46.083Z,36.43
2016-07-19T09:33:46.087Z,36.55
2016-07-19T09:34:46.092Z,36.73
2016-07-19T09:35:46.091Z,36.78
2016-07-19T09:36:46.095Z,36.88
2016-07-19T09:37:46.103Z,37.01
2016-07-19T09:38:46.099Z,36.92
2016-07-19T09:39:46.103Z,36.82
2016-07-19T09:40:46.107Z,36.75
2016-07-19T09:41:46.107Z,36.51
2016-07-19T09:42:46.107Z,36.33
2016-07-19T09:43:46.111Z,36.24
2016-07-19T09:44:46.116Z,36.16
2016-07-19T09:45:46.118Z,35.9
2016-07-19T09:46:46.119Z,35.59
2016-07-19T09:47:46.124Z,35.35
2016-07-19T09:48:46.128Z,35.18
2016-07-19T09:49:46.123Z,35.05
2016-07-19T09:50:46.132Z,34.63
2016-07-19T09:51:46.132Z,34.25
2016-07-19T09:52:46.136Z,33.91
2016-07-19T09:53:46.135Z,33.47
2016-07-19T09:54:46.139Z,32.9
2016-07-19T09:55:46.158Z,32.42
2016-07-19T09:56:46.148Z,31.98
2016-07-19T09:57:46.147Z,31.55
2016-07-19T09:58:46.152Z,31.36
2016-07-19T09:59:46.152Z,31.2
2016-07-19T10:00:46.156Z,31.14
2016-07-19T10:01:46.156Z,31.11
2016-07-19T10:02:46.159Z,31.25
2016-07-19T10:03:46.164Z,31.23
2016-07-19T10:04:46.164Z,31.22
2016-07-19T10:05:46.171Z,31.17
2016-07-19T10:06:46.171Z,31.05
2016-07-19T10:07:46.172Z,31.02
2016-07-19T10:08:46.176Z,30.81
2016-07-19T10:09:46.179Z,30.77
2016-07-19T10:10:46.184Z,30.8
2016-07-19T10:11:46.184Z,30.67
2016-07-19T10:12:46.187Z,30.55
2016-07-19T10:13:46.188Z,30.44
2016-07-19T10:14:46.192Z,30.4
2016-07-19T10:15:46.192Z,30.32
2016-07-19T10:16:46.196Z,30.33
2016-07-19T10:17:46.204Z,30.23
2016-07-19T10:18:46.200Z,30.1
2016-07-19T10:19:46.204Z,30.01
2016-07-19T10:20:46.208Z,29.96
2016-07-19T10:21:46.207Z,29.86
2016-07-19T10:22:46.212Z,29.89
2016-07-19T10:23:46.212Z,29.86
2016-07-19T10:24:46.215Z,29.74
2016-07-19T10:25:46.224Z,29.73
2016-07-19T10:26:46.220Z,29.67
2016-07-19T10:27:46.224Z,29.68
2016-07-19T10:28:46.440Z,29.71
2016-07-19T10:29:46.228Z,29.76
2016-07-19T10:30:46.232Z,29.79
2016-07-19T10:31:46.232Z,29.9
2016-07-19T10:32:46.231Z,29.92
2016-07-19T10:33:46.237Z,30.02
2016-07-19T10:34:46.245Z,30.05
2016-07-19T10:35:46.252Z,30.16
2016-07-19T10:36:46.248Z,30.17
2016-07-19T10:37:46.249Z,30.29
2016-07-19T10:38:46.253Z,30.43
2016-07-19T10:39:46.252Z,30.48
2016-07-19T10:40:46.257Z,30.62
2016-07-19T10:41:46.260Z,30.65
2016-07-19T10:42:46.312Z,30.67
2016-07-19T10:43:46.265Z,30.46
2016-07-19T10:44:46.260Z,30.44
2016-07-19T10:45:45.557Z,30.51
2016-07-19T10:46:46.272Z,30.52
2016-07-19T10:47:45.556Z,30.48
2016-07-19T10:48:46.277Z,30.49
2016-07-19T10:49:46.281Z,30.51
2016-07-19T10:50:46.281Z,30.49
2016-07-19T10:51:46.284Z,30.63
2016-07-19T10:52:46.285Z,30.58
2016-07-19T10:53:46.285Z,30.51
2016-07-19T10:54:46.292Z,30.52
2016-07-19T10:55:45.568Z,30.39
2016-07-19T10:56:46.297Z,30.39
2016-07-19T10:57:46.301Z,30.36
2016-07-19T10:58:46.300Z,30.49
2016-07-19T10:59:46.305Z,30.54
2016-07-19T11:00:46.309Z,30.58
2016-07-19T11:01:46.309Z,30.67
2016-07-19T11:02:46.314Z,30.61
2016-07-19T11:03:46.312Z,30.67
2016-07-19T11:04:45.605Z,30.63
2016-07-19T11:05:46.321Z,30.67
2016-07-19T11:06:46.321Z,30.49
2016-07-19T11:07:46.325Z,30.52
2016-07-19T11:08:46.328Z,30.49
2016-07-19T11:09:46.330Z,30.4
2016-07-19T11:10:46.334Z,30.4
2016-07-19T11:11:46.346Z,30.36
2016-07-19T11:12:46.337Z,30.39
2016-07-19T11:13:46.341Z,30.38
2016-07-19T11:14:46.341Z,30.39
2016-07-19T11:15:46.346Z,30.32
2016-07-19T11:16:46.349Z,30.29
2016-07-19T11:17:46.349Z,30.21
2016-07-19T11:18:46.364Z,30.18
2016-07-19T11:19:46.354Z,30.16
2016-07-19T11:20:46.358Z,30.18
2016-07-19T11:21:46.357Z,30.17
2016-07-19T11:22:46.361Z,30.13
2016-07-19T11:23:46.366Z,30.05
2016-07-19T11:24:46.361Z,30.05
2016-07-19T11:25:46.369Z,29.94
2016-07-19T11:26:46.374Z,29.89
2016-07-19T11:27:46.374Z,29.86
2016-07-19T11:28:46.377Z,29.81
2016-07-19T11:29:46.382Z,29.74
2016-07-19T11:30:46.382Z,29.62
2016-07-19T11:31:46.386Z,29.58
2016-07-19T11:32:46.386Z,29.71
2016-07-19T11:33:46.389Z,29.81
2016-07-19T11:34:46.398Z,29.98
2016-07-19T11:35:46.394Z,30.01
2016-07-19T11:36:46.399Z,30.21
2016-07-19T11:37:46.402Z,30.31
2016-07-19T11:38:46.402Z,30.36
2016-07-19T11:39:46.406Z,30.49
2016-07-19T11:40:46.402Z,30.59
2016-07-19T11:41:46.419Z,30.65
2016-07-19T11:42:46.415Z,30.67
2016-07-19T11:43:46.418Z,30.76
2016-07-19T11:44:46.419Z,30.76
2016-07-19T11:45:46.423Z,30.74
2016-07-19T11:46:46.422Z,30.71
2016-07-19T11:47:46.431Z,30.63
2016-07-19T11:48:46.431Z,30.59
2016-07-19T11:49:46.430Z,30.35
2016-07-19T11:50:46.435Z,30.31
2016-07-19T11:51:46.438Z,30.33
2016-07-19T11:52:46.434Z,30.32
2016-07-19T11:53:46.443Z,30.32
2016-07-19T11:54:46.443Z,30.39
2016-07-19T11:55:46.450Z,30.35
2016-07-19T11:56:46.451Z,30.18
2016-07-19T11:57:46.450Z,30.13
2016-07-19T11:58:46.454Z,29.96
2016-07-19T11:59:46.459Z,29.92
2016-07-19T12:00:46.459Z,29.86
2016-07-19T12:01:46.464Z,29.83
2016-07-19T12:02:46.467Z,29.9
2016-07-19T12:03:46.467Z,29.95
2016-07-19T12:04:46.471Z,29.9
2016-07-19T12:05:46.467Z,29.87
2016-07-19T12:06:46.475Z,29.84
2016-07-19T12:07:46.479Z,29.81
2016-07-19T12:08:46.479Z,30.01
2016-07-19T12:09:46.482Z,30.02
2016-07-19T12:10:46.487Z,30.11
2016-07-19T12:11:46.487Z,30.32
2016-07-19T12:12:46.490Z,30.24
2016-07-19T12:13:46.492Z,30.2
2016-07-19T12:14:46.496Z,30.11
2016-07-19T12:15:46.499Z,30.13
2016-07-19T12:16:46.498Z,30.06
2016-07-19T12:17:46.517Z,30.1
2016-07-19T12:18:45.787Z,30.08
2016-07-19T12:19:46.502Z,30.01
2016-07-19T12:20:46.510Z,30.03
2016-07-19T12:21:46.515Z,29.98
2016-07-19T12:22:46.515Z,30.08
2016-07-19T12:23:46.520Z,30.08
2016-07-19T12:24:46.520Z,30.06
2016-07-19T12:25:46.523Z,30.03
2016-07-19T12:26:46.528Z,30.1
2016-07-19T12:27:46.528Z,30.13
2016-07-19T12:28:46.532Z,30.16
2016-07-19T12:29:46.535Z,30.17
2016-07-19T12:30:46.536Z,30.14
2016-07-19T12:31:46.540Z,30.1
2016-07-19T12:32:46.539Z,30.01
2016-07-19T12:33:46.552Z,29.95
2016-07-19T12:34:46.548Z,29.87
2016-07-19T12:35:46.547Z,29.99
2016-07-19T12:36:46.564Z,29.96
2016-07-19T12:37:46.556Z,29.96
2016-07-19T12:38:46.557Z,29.83
2016-07-19T12:39:46.559Z,29.89
2016-07-19T12:40:46.576Z,29.84
2016-07-19T12:41:46.564Z,29.89
2016-07-19T12:42:46.617Z,29.83
2016-07-19T12:43:46.569Z,29.95
2016-07-19T12:44:46.574Z,29.96
2016-07-19T12:45:46.576Z,29.98
2016-07-19T12:46:46.578Z,29.98
2016-07-19T12:47:46.584Z,30.03
2016-07-19T12:48:45.861Z,30.03
2016-07-19T12:49:46.584Z,30.1
2016-07-19T12:50:46.589Z,30.05
2016-07-19T12:51:46.589Z,29.94
2016-07-19T12:52:46.592Z,29.84
2016-07-19T12:53:46.597Z,29.8
2016-07-19T12:54:46.597Z,29.71
2016-07-19T12:55:46.601Z,29.8